Map

Track Data

SID SEASON NUMBER BASIN SUBBASIN NAME ISO_TIME NATURE LAT LON WMO_WIND WMO_PRES WMO_AGENCY TRACK_TYPE DIST2LAND LANDFALL IFLAG USA_AGENCY USA_ATCF_ID USA_LAT USA_LON USA_RECORD USA_STATUS USA_WIND USA_PRES USA_SSHS USA_R34_NE USA_R34_SE USA_R34_SW USA_R34_NW USA_R50_NE USA_R50_SE USA_R50_SW USA_R50_NW USA_R64_NE USA_R64_SE USA_R64_SW USA_R64_NW USA_POCI USA_ROCI USA_RMW USA_EYE TOKYO_LAT TOKYO_LON TOKYO_GRADE TOKYO_WIND TOKYO_PRES TOKYO_R50_DIR TOKYO_R50_LONG TOKYO_R50_SHORT TOKYO_R30_DIR TOKYO_R30_LONG TOKYO_R30_SHORT TOKYO_LAND CMA_LAT CMA_LON CMA_CAT CMA_WIND CMA_PRES HKO_LAT HKO_LON HKO_CAT HKO_WIND HKO_PRES NEWDELHI_LAT NEWDELHI_LON NEWDELHI_GRADE NEWDELHI_WIND NEWDELHI_PRES NEWDELHI_CI NEWDELHI_DP NEWDELHI_POCI REUNION_LAT REUNION_LON REUNION_TYPE REUNION_WIND REUNION_PRES REUNION_TNUM REUNION_CI REUNION_RMW REUNION_R34_NE REUNION_R34_SE REUNION_R34_SW REUNION_R34_NW REUNION_R50_NE REUNION_R50_SE REUNION_R50_SW REUNION_R50_NW REUNION_R64_NE REUNION_R64_SE REUNION_R64_SW REUNION_R64_NW BOM_LAT BOM_LON BOM_TYPE BOM_WIND BOM_PRES BOM_TNUM BOM_CI BOM_RMW BOM_R34_NE BOM_R34_SE BOM_R34_SW BOM_R34_NW BOM_R50_NE BOM_R50_SE BOM_R50_SW BOM_R50_NW BOM_R64_NE BOM_R64_SE BOM_R64_SW BOM_R64_NW BOM_ROCI BOM_POCI BOM_EYE BOM_POS_METHOD BOM_PRES_METHOD NADI_LAT NADI_LON NADI_CAT NADI_WIND NADI_PRES WELLINGTON_LAT WELLINGTON_LON WELLINGTON_WIND WELLINGTON_PRES DS824_LAT DS824_LON DS824_STAGE DS824_WIND DS824_PRES TD9636_LAT TD9636_LON TD9636_STAGE TD9636_WIND TD9636_PRES TD9635_LAT TD9635_LON TD9635_WIND TD9635_PRES TD9635_ROCI NEUMANN_LAT NEUMANN_LON NEUMANN_CLASS NEUMANN_WIND NEUMANN_PRES MLC_LAT MLC_LON MLC_CLASS MLC_WIND MLC_PRES USA_GUST BOM_GUST BOM_GUST_PER REUNION_GUST REUNION_GUST_PER USA_SEAHGT USA_SEARAD_NE USA_SEARAD_SE USA_SEARAD_SW USA_SEARAD_NW STORM_SPEED STORM_DIR
1890179N13114 1890 17 WP MM NOT_NAMED 1890-06-27 16:00:00 NR 13.3000 113.500 main 435 435 __________O___ -1 13.3000 113.500 7 3 348
1890179N13114 1890 17 WP MM NOT_NAMED 1890-06-27 18:00:00 NR 13.4094 113.490 main 436 436 __________P___ -1 13.4094 113.490 7 4 355
1890179N13114 1890 17 WP MM NOT_NAMED 1890-06-27 21:00:00 NR 13.5949 113.485 main 440 440 __________P___ -1 13.5949 113.485 7 4 0
1890179N13114 1890 17 WP MM NOT_NAMED 1890-06-28 00:00:00 NR 13.8357 113.506 main 444 447 __________P___ -1 13.8357 113.506 7 6 8
1890179N13114 1890 17 WP MM NOT_NAMED 1890-06-28 03:00:00 NR 14.1649 113.567 main 465 465 __________P___ -1 14.1649 113.567 7 7 11
1890179N13114 1890 17 WP MM NOT_NAMED 1890-06-28 04:00:00 NR 14.3000 113.600 main 466 466 __________O___ -1 14.3000 113.600 7 9 14
1890179N13114 1890 17 WP MM NOT_NAMED 1890-06-28 06:00:00 NR 14.6123 113.684 main 480 480 __________P___ -1 14.6123 113.684 7 11 15
1890179N13114 1890 17 WP MM NOT_NAMED 1890-06-28 09:00:00 NR 15.1690 113.842 main 505 500 __________P___ -1 15.1690 113.842 7 12 15
1890179N13114 1890 17 WP MM NOT_NAMED 1890-06-28 12:00:00 NR 15.8006 114.011 main 500 466 __________P___ -1 15.8006 114.011 7 13 13
1890179N13114 1890 17 WP MM NOT_NAMED 1890-06-28 15:00:00 NR 16.4728 114.160 main 469 456 __________P___ -1 16.4728 114.160 7 14 11
1890179N13114 1890 17 WP MM NOT_NAMED 1890-06-28 16:00:00 NR 16.7000 114.200 main 456 439 __________O___ -1 16.7000 114.200 3 14 9
1890179N13114 1890 17 WP MM NOT_NAMED 1890-06-28 18:00:00 NR 17.1537 114.271 main 439 396 __________P___ -1 17.1537 114.271 3 14 7
1890179N13114 1890 17 WP MM NOT_NAMED 1890-06-28 21:00:00 NR 17.8537 114.347 main 396 377 __________P___ -1 17.8537 114.347 3 14 4
1890179N13114 1890 17 WP MM NOT_NAMED 1890-06-29 00:00:00 NR 18.5466 114.372 main 377 330 __________P___ -1 18.5466 114.372 3 14 0
1890179N13114 1890 17 WP MM NOT_NAMED 1890-06-29 03:00:00 NR 19.1980 114.331 main 330 310 __________P___ -1 19.1980 114.331 3 13 356
1890179N13114 1890 17 WP MM NOT_NAMED 1890-06-29 04:00:00 NR 19.4000 114.300 main 310 265 __________O___ -1 19.4000 114.300 4 12 349
1890179N13114 1890 17 WP MM NOT_NAMED 1890-06-29 06:00:00 NR 19.7649 114.215 main 265 206 __________P___ -1 19.7649 114.215 4 11 343
1890179N13114 1890 17 WP MM NOT_NAMED 1890-06-29 09:00:00 NR 20.2619 114.025 main 206 157 __________P___ -1 20.2619 114.025 4 10 337
1890179N13114 1890 17 WP MM NOT_NAMED 1890-06-29 12:00:00 NR 20.7179 113.778 main 157 93 __________P___ -1 20.7179 113.778 4 10 331
1890179N13114 1890 17 WP MM NOT_NAMED 1890-06-29 15:00:00 NR 21.1548 113.497 main 93 78 __________P___ -1 21.1548 113.497 4 10 329
1890179N13114 1890 17 WP MM NOT_NAMED 1890-06-29 16:00:00 NR 21.3000 113.400 main 78 39 __________O___ -1 21.3000 113.400 4 10 328
1890179N13114 1890 17 WP MM NOT_NAMED 1890-06-29 18:00:00 NR 21.5933 113.204 main 39 0 __________P___ -1 21.5933 113.204 4 10 328
1890179N13114 1890 17 WP MM NOT_NAMED 1890-06-29 21:00:00 NR 22.0401 112.906 main 0 0 __________P___ -1 22.0401 112.906 4 11 328
1890179N13114 1890 17 WP MM NOT_NAMED 1890-06-30 00:00:00 NR 22.4926 112.605 main 0 0 __________P___ -1 22.4926 112.605 4 11 328
1890179N13114 1890 17 WP MM NOT_NAMED 1890-06-30 03:00:00 NR 22.9480 112.302 main 0 0 __________P___ -1 22.9480 112.302 4 11 328
1890179N13114 1890 17 WP MM NOT_NAMED 1890-06-30 04:00:00 NR 23.1000 112.200 main 0 __________O___ -1 23.1000 112.200 7 11 327

Digital Typhoon Data and Search

About IBTrACS Database

This database is a web-friendly format of International Best Track Archive for Climate Stewardship (IBTrACS), a global best track data archive curated by NOAA dating back to 1842.

Updated: 2021-10-08